Time;durP1;ratioP1;P1;durP2;ratioP2;P2;SDS_P1;SDS_P2;PMS_P1;PMS_P2;Temp;Humidity;BMP_temperature;BMP_pressure;BME280_temperature;BME280_humidity;BME280_pressure;Samples;Min_cycle;Max_cycle;Signal;HPM_P1;HPM_P2
2022/06/21 00:01:12;;;;;;;7.83;5.70;;;11.20;99.90;;;;;;5100862;28;20493;-58
2022/06/21 00:03:39;;;;;;;8.70;7.57;;;11.10;1.00;;;;;;5101172;28;20457;-58
2022/06/21 00:06:10;;;;;;;8.77;6.20;;;11.10;1.00;;;;;;5100953;28;20463;-57
2022/06/21 00:08:39;;;;;;;9.13;6.53;;;11.00;99.90;;;;;;5101123;28;20864;-57
2022/06/21 00:11:17;;;;;;;7.20;5.80;;;10.90;99.90;;;;;;5100819;28;20471;-57
2022/06/21 00:13:47;;;;;;;7.70;6.30;;;10.80;1.00;;;;;;5100592;28;20467;-58
2022/06/21 00:16:22;;;;;;;6.40;5.73;;;10.80;99.90;;;;;;5100811;28;20468;-57
2022/06/21 00:18:50;;;;;;;9.33;6.70;;;10.80;17.10;;;;;;5100933;28;20754;-58
2022/06/21 00:21:20;;;;;;;7.73;6.93;;;10.90;1.00;;;;;;5100907;28;20885;-58
2022/06/21 00:23:50;;;;;;;7.83;6.10;;;10.90;30.20;;;;;;5101115;28;20437;-57
2022/06/21 00:26:21;;;;;;;7.40;6.50;;;10.90;99.90;;;;;;5100646;28;20443;-58
2022/06/21 00:28:48;;;;;;;8.73;6.50;;;10.80;1.00;;;;;;5100726;28;20521;-57
2022/06/21 00:31:25;;;;;;;7.07;5.57;;;10.70;1.00;;;;;;5100016;28;20442;-58
2022/06/21 00:33:52;;;;;;;6.70;6.00;;;10.70;99.90;;;;;;5100445;28;20954;-58
2022/06/21 00:36:25;;;;;;;10.77;7.23;;;10.70;99.90;;;;;;5100617;28;20760;-58
2022/06/21 00:38:58;;;;;;;7.33;6.37;;;10.70;99.90;;;;;;5100578;28;20467;-58
2022/06/21 00:41:37;;;;;;;8.97;7.10;;;10.70;99.90;;;;;;5100449;28;20559;-58
2022/06/21 00:44:08;;;;;;;6.17;5.50;;;10.60;99.90;;;;;;5099749;28;20473;-57
2022/06/21 00:46:40;;;;;;;7.73;6.43;;;10.60;99.90;;;;;;5100351;28;20925;-58
2022/06/21 00:49:14;;;;;;;7.40;5.70;;;10.70;1.00;;;;;;5099811;28;20442;-57
2022/06/21 00:51:43;;;;;;;7.13;5.33;;;10.60;1.00;;;;;;5099965;28;20468;-58
2022/06/21 00:54:19;;;;;;;11.47;6.33;;;10.50;99.90;;;;;;5100218;28;20790;-58
2022/06/21 00:56:54;;;;;;;6.57;5.90;;;10.40;1.00;;;;;;5099217;28;20466;-58
2022/06/21 00:59:25;;;;;;;8.40;6.30;;;10.30;83.20;;;;;;5100189;28;20715;-57
2022/06/21 01:02:01;;;;;;;6.77;6.10;;;10.30;34.50;;;;;;5100107;28;20498;-57
2022/06/21 01:04:34;;;;;;;6.63;5.90;;;10.30;24.60;;;;;;5100375;28;20812;-58
2022/06/21 01:07:04;;;;;;;7.93;6.27;;;10.40;99.90;;;;;;5099906;28;20533;-57
2022/06/21 01:09:37;;;;;;;6.10;5.50;;;10.30;1.00;;;;;;5099543;28;20493;-58
2022/06/21 01:12:12;;;;;;;10.10;6.60;;;10.40;1.00;;;;;;5100006;28;20457;-58
2022/06/21 01:14:50;;;;;;;7.13;6.43;;;10.40;1.00;;;;;;5100055;28;20518;-58
2022/06/21 01:17:18;;;;;;;7.37;6.50;;;10.40;1.00;;;;;;5099410;28;20904;-57
2022/06/21 01:19:49;;;;;;;11.50;7.07;;;10.40;25.70;;;;;;5099589;28;20743;-57
2022/06/21 01:22:30;;;;;;;7.63;6.87;;;10.30;99.90;;;;;;5099600;28;20442;-57
2022/06/21 01:25:13;;;;;;;9.20;6.83;;;10.30;1.00;;;;;;5098600;28;20456;-58
2022/06/21 01:27:42;;;;;;;8.90;5.93;;;10.40;1.00;;;;;;5099827;28;20456;-58
2022/06/21 01:30:10;;;;;;;7.30;6.60;;;10.30;1.00;;;;;;5099638;28;20456;-57
2022/06/21 01:32:38;;;;;;;7.77;6.20;;;10.20;99.90;;;;;;5099285;28;20470;-58
2022/06/21 01:35:12;;;;;;;7.57;5.57;;;10.10;99.90;;;;;;5098963;28;20461;-58
2022/06/21 01:37:42;;;;;;;6.90;5.60;;;10.10;99.90;;;;;;5099349;28;20548;-58
2022/06/21 01:40:16;;;;;;;8.37;6.13;;;10.00;1.00;;;;;;5099166;28;20522;-58
2022/06/21 01:42:48;;;;;;;7.13;6.40;;;10.00;1.00;;;;;;5099090;28;20463;-58
2022/06/21 01:45:21;;;;;;;7.40;6.27;;;10.00;99.90;;;;;;5098791;28;20456;-58
2022/06/21 01:48:06;;;;;;;7.03;6.43;;;9.90;99.90;;;;;;5098899;28;20534;-58
2022/06/21 01:50:35;;;;;;;7.87;6.23;;;9.80;99.90;;;;;;5099142;28;20957;-57
2022/06/21 01:53:04;;;;;;;9.40;6.20;;;9.70;99.90;;;;;;5098426;28;20524;-58
2022/06/21 01:55:39;;;;;;;7.40;6.60;;;9.70;1.00;;;;;;5098774;28;20439;-57
2022/06/21 01:58:13;;;;;;;7.70;6.60;;;9.70;99.90;;;;;;5098842;28;20438;-58
2022/06/21 02:00:45;;;;;;;8.10;6.37;;;9.70;99.90;;;;;;5099221;28;20874;-58
2022/06/21 02:03:20;;;;;;;7.27;6.57;;;9.70;99.90;;;;;;5098059;28;20456;-57
2022/06/21 02:05:51;;;;;;;9.40;7.40;;;9.60;99.90;;;;;;5098772;28;20803;-58
2022/06/21 02:08:23;;;;;;;7.30;6.60;;;9.60;1.00;;;;;;5098571;28;20439;-59
2022/06/21 02:10:56;;;;;;;9.00;6.57;;;9.60;24.10;;;;;;5099071;28;20449;-59
2022/06/21 02:13:29;;;;;;;7.07;6.40;;;9.60;1.00;;;;;;5098562;28;20474;-59
2022/06/21 02:16:00;;;;;;;8.20;5.90;;;9.70;99.90;;;;;;5098411;28;20460;-58
2022/06/21 02:18:31;;;;;;;7.60;5.70;;;9.70;1.00;;;;;;5098584;28;20461;-59
2022/06/21 02:21:04;;;;;;;9.63;6.43;;;9.70;1.00;;;;;;5098440;28;20449;-59
2022/06/21 02:23:34;;;;;;;6.70;6.00;;;9.60;99.90;;;;;;5098310;28;20860;-58
2022/06/21 02:26:02;;;;;;;6.60;5.80;;;9.60;99.90;;;;;;5098246;28;20892;-59
2022/06/21 02:28:30;;;;;;;7.33;5.93;;;9.60;52.80;;;;;;5098355;28;20461;-58
2022/06/21 02:30:58;;;;;;;8.20;6.30;;;9.50;99.90;;;;;;5098661;28;20885;-59
2022/06/21 02:33:30;;;;;;;7.50;6.47;;;9.40;1.00;;;;;;5098306;28;20787;-59
2022/06/21 02:36:00;;;;;;;7.40;6.20;;;9.50;99.90;;;;;;5098343;28;20439;-59
2022/06/21 02:38:34;;;;;;;7.70;6.17;;;9.40;97.10;;;;;;5098437;28;20563;-58
2022/06/21 02:41:14;;;;;;;8.43;6.53;;;9.40;99.90;;;;;;5097866;28;20491;-59
2022/06/21 02:43:47;;;;;;;7.07;5.90;;;9.30;99.90;;;;;;5098112;28;20487;-59
2022/06/21 02:46:21;;;;;;;9.87;6.53;;;9.30;1.00;;;;;;5098241;28;20460;-58
2022/06/21 02:48:53;;;;;;;16.00;6.73;;;9.30;18.00;;;;;;5098077;28;20781;-59
2022/06/21 02:51:25;;;;;;;7.23;6.53;;;9.30;1.00;;;;;;5097753;28;20460;-59
2022/06/21 02:54:00;;;;;;;9.87;7.20;;;9.30;15.00;;;;;;5098059;28;20492;-59
2022/06/21 02:56:34;;;;;;;8.20;7.10;;;9.30;99.90;;;;;;5098249;28;20462;-59
2022/06/21 02:59:05;;;;;;;9.00;6.30;;;9.20;1.00;;;;;;5097161;28;20457;-59
2022/06/21 03:01:35;;;;;;;7.20;6.50;;;9.20;99.90;;;;;;5097477;28;20442;-59
2022/06/21 03:04:08;;;;;;;7.13;6.50;;;9.10;1.00;;;;;;5097909;28;20454;-59
2022/06/21 03:06:36;;;;;;;7.63;6.90;;;9.10;99.90;;;;;;5097710;28;20461;-59
2022/06/21 03:09:07;;;;;;;8.33;7.40;;;9.10;1.00;;;;;;5097397;28;20452;-59
2022/06/21 03:11:38;;;;;;;10.17;7.20;;;9.10;99.90;;;;;;5097601;28;20439;-59
2022/06/21 03:14:13;;;;;;;12.00;7.30;;;9.10;99.90;;;;;;5097397;28;20511;-59
2022/06/21 03:16:45;;;;;;;10.27;8.33;;;9.10;1.00;;;;;;5097658;28;20460;-59
2022/06/21 03:19:22;;;;;;;10.07;8.17;;;9.10;99.90;;;;;;5096660;28;20467;-59
2022/06/21 03:21:49;;;;;;;8.33;7.43;;;9.20;99.90;;;;;;5097137;28;20466;-59
2022/06/21 03:24:23;;;;;;;8.60;7.30;;;9.20;36.60;;;;;;5097422;28;20438;-58
2022/06/21 03:26:56;;;;;;;9.73;7.83;;;9.20;99.90;;;;;;5097515;28;20435;-59
2022/06/21 03:29:24;;;;;;;11.03;8.07;;;9.20;99.90;;;;;;5097253;28;20747;-59
2022/06/21 03:31:54;;;;;;;10.47;9.40;;;9.20;1.00;;;;;;5097285;28;20439;-59
2022/06/21 03:34:24;;;;;;;8.90;8.10;;;9.20;1.00;;;;;;5097253;28;20467;-59
2022/06/21 03:36:51;;;;;;;11.00;8.83;;;9.20;50.00;;;;;;5097147;28;20508;-59
2022/06/21 03:41:42;;;;;;;10.10;8.60;;;9.30;99.90;;;;;;5097359;28;20885;-59
2022/06/21 03:42:08;;;;;;;9.53;7.70;;;9.20;1.00;;;;;;5097345;28;20883;-59
2022/06/21 03:44:42;;;;;;;11.93;7.80;;;9.20;1.00;;;;;;5097157;28;20463;-59
2022/06/21 03:47:15;;;;;;;9.70;8.30;;;9.10;1.00;;;;;;5096989;28;20892;-59
2022/06/21 03:49:46;;;;;;;14.17;9.90;;;9.20;1.00;;;;;;5097266;28;20465;-59
2022/06/21 03:52:41;;;;;;;13.20;10.80;;;9.20;1.00;;;;;;5097407;28;20435;-59
2022/06/21 03:55:13;;;;;;;20.50;12.43;;;9.20;99.90;;;;;;5096764;28;20956;-59
2022/06/21 03:57:44;;;;;;;16.60;10.03;;;9.30;99.90;;;;;;5097135;28;20466;-59
2022/06/21 04:00:14;;;;;;;12.33;9.30;;;9.40;99.90;;;;;;5097128;28;20958;-59
2022/06/21 04:02:48;;;;;;;11.10;9.03;;;9.40;99.90;;;;;;5096581;28;20431;-58
2022/06/21 04:05:22;;;;;;;9.93;9.00;;;9.50;99.90;;;;;;5096311;28;20452;-59
2022/06/21 04:07:55;;;;;;;15.03;8.03;;;9.50;99.90;;;;;;5096933;28;21030;-59
2022/06/21 04:10:26;;;;;;;11.17;8.43;;;9.60;99.90;;;;;;5097253;28;20460;-59
2022/06/21 04:12:55;;;;;;;10.77;8.50;;;9.60;99.90;;;;;;5096759;28;20435;-59
2022/06/21 04:15:29;;;;;;;11.97;9.03;;;9.50;99.90;;;;;;5097031;28;20905;-59
2022/06/21 04:18:03;;;;;;;12.63;10.00;;;9.50;99.90;;;;;;5097255;28;20464;-59
2022/06/21 04:20:35;;;;;;;10.90;9.00;;;9.50;99.90;;;;;;5097004;28;20467;-59
2022/06/21 04:23:07;;;;;;;8.23;7.43;;;9.40;99.90;;;;;;5096429;28;20458;-59
2022/06/21 04:25:41;;;;;;;10.57;7.60;;;9.40;1.00;;;;;;5094967;28;20464;-59
2022/06/21 04:28:12;;;;;;;10.23;8.37;;;9.50;99.90;;;;;;5075977;28;20467;-59
2022/06/21 04:30:48;;;;;;;16.20;9.37;;;9.50;6.70;;;;;;5076367;28;20913;-60
2022/06/21 04:33:19;;;;;;;9.83;8.90;;;9.70;1.00;;;;;;5078762;28;20489;-59
2022/06/21 04:35:54;;;;;;;9.70;8.63;;;9.80;1.00;;;;;;5082405;28;20488;-59
2022/06/21 04:38:26;;;;;;;12.70;9.77;;;9.90;11.40;;;;;;5084202;28;20468;-60
2022/06/21 04:40:58;;;;;;;12.93;10.00;;;9.90;1.00;;;;;;5083027;28;20889;-60
2022/06/21 04:43:32;;;;;;;11.20;9.03;;;10.00;1.00;;;;;;5079790;28;20485;-60
2022/06/21 04:46:05;;;;;;;13.00;11.10;;;10.10;1.00;;;;;;5085748;28;20432;-59
2022/06/21 04:48:42;;;;;;;14.63;9.57;;;10.20;99.90;;;;;;5099066;28;20462;-60
2022/06/21 04:51:16;;;;;;;10.07;7.70;;;10.30;99.90;;;;;;5085868;28;20461;-59
2022/06/21 04:53:52;;;;;;;11.10;9.00;;;10.30;1.00;;;;;;5079896;28;20525;-59
2022/06/21 04:56:29;;;;;;;9.10;8.10;;;10.30;99.90;;;;;;5079140;28;20894;-60
2022/06/21 04:58:58;;;;;;;7.70;6.90;;;10.40;99.90;;;;;;5078917;28;20905;-59
2022/06/21 05:01:33;;;;;;;8.77;7.67;;;10.50;99.90;;;;;;5079217;28;20874;-60
2022/06/21 05:04:07;;;;;;;10.27;7.10;;;10.50;90.20;;;;;;5094871;28;20460;-60
2022/06/21 05:06:36;;;;;;;11.87;7.83;;;10.60;1.00;;;;;;5092379;28;20874;-60
2022/06/21 05:09:13;;;;;;;11.50;7.40;;;10.70;1.00;;;;;;5078568;28;20913;-60
2022/06/21 05:11:43;;;;;;;9.10;6.77;;;10.80;1.00;;;;;;5098026;28;20499;-60
2022/06/21 05:14:20;;;;;;;8.03;7.23;;;10.80;99.90;;;;;;5099604;28;20858;-60
2022/06/21 05:16:50;;;;;;;7.93;7.13;;;11.00;1.00;;;;;;5098026;28;20479;-57
2022/06/21 05:19:24;;;;;;;8.23;6.97;;;11.10;1.00;;;;;;5100232;28;20468;-59
2022/06/21 05:21:57;;;;;;;7.17;6.47;;;11.30;99.90;;;;;;5097802;28;20456;-59
2022/06/21 05:24:27;;;;;;;9.07;7.80;;;11.50;99.90;;;;;;5083409;28;20928;-59
2022/06/21 05:27:02;;;;;;;10.80;7.27;;;11.70;72.10;;;;;;5079418;28;20457;-59
2022/06/21 05:29:35;;;;;;;7.77;6.43;;;11.90;1.00;;;;;;5079652;28;20898;-59
2022/06/21 05:32:10;;;;;;;10.00;7.07;;;12.00;1.00;;;;;;5099701;28;20832;-59
2022/06/21 05:34:43;;;;;;;12.87;7.60;;;12.30;1.00;;;;;;5079214;28;20489;-59
2022/06/21 05:37:24;;;;;;;8.63;7.07;;;12.50;1.00;;;;;;5079515;28;20898;-59
2022/06/21 05:39:55;;;;;;;10.57;6.13;;;12.60;1.00;;;;;;5077478;28;20779;-59
2022/06/21 05:42:28;;;;;;;8.87;6.77;;;12.80;1.00;;;;;;5076436;28;20465;-59
2022/06/21 05:45:02;;;;;;;6.93;6.20;;;13.00;1.00;;;;;;5081377;28;20484;-59
2022/06/21 05:47:38;;;;;;;7.43;6.40;;;13.30;1.00;;;;;;5081197;28;20539;-59
2022/06/21 05:50:09;;;;;;;11.83;5.93;;;13.60;1.00;;;;;;5078750;28;20456;-59
2022/06/21 05:52:41;;;;;;;8.00;6.00;;;13.90;1.00;;;;;;5079109;28;20436;-59
2022/06/21 05:55:15;;;;;;;8.97;6.20;;;14.30;1.00;;;;;;5078228;28;20493;-59
2022/06/21 05:57:47;;;;;;;13.20;6.50;;;14.60;99.90;;;;;;5078507;28;20467;-59
2022/06/21 06:00:25;;;;;;;11.50;6.07;;;14.80;99.90;;;;;;5078978;28;20435;-59
2022/06/21 06:02:58;;;;;;;8.57;5.63;;;15.10;99.90;;;;;;5098337;28;20442;-59
2022/06/21 06:05:30;;;;;;;6.13;5.53;;;15.40;99.90;;;;;;5097995;28;20491;-59
2022/06/21 06:08:06;;;;;;;7.20;6.00;;;15.60;99.90;;;;;;5093169;28;20439;-59
2022/06/21 06:10:37;;;;;;;6.70;4.90;;;15.80;99.90;;;;;;5078472;28;20807;-60
2022/06/21 06:13:09;;;;;;;7.00;5.07;;;16.10;99.90;;;;;;5098453;28;20482;-57
2022/06/21 06:15:46;;;;;;;10.10;5.20;;;16.40;99.90;;;;;;5084273;28;20484;-56
2022/06/21 06:18:19;;;;;;;4.67;4.17;;;16.50;99.90;;;;;;5085657;28;20463;-59
2022/06/21 06:20:56;;;;;;;9.20;4.83;;;16.80;99.90;;;;;;5098079;28;20464;-59
2022/06/21 06:23:33;;;;;;;8.53;4.03;;;17.00;99.90;;;;;;5088322;28;20897;-58
2022/06/21 06:26:03;;;;;;;6.33;4.90;;;17.30;99.90;;;;;;5076853;28;20572;-59
2022/06/21 06:28:35;;;;;;;5.00;4.17;;;17.70;99.90;;;;;;5077716;28;20465;-59
2022/06/21 06:31:08;;;;;;;7.43;5.00;;;18.00;99.90;;;;;;5076059;28;21066;-59
2022/06/21 06:33:42;;;;;;;7.90;4.67;;;18.30;99.90;;;;;;5076079;28;20519;-58
2022/06/21 06:36:14;;;;;;;7.80;5.00;;;18.50;99.90;;;;;;5076383;28;20436;-58
2022/06/21 06:38:44;;;;;;;6.20;3.67;;;18.80;99.90;;;;;;5083867;28;20755;-57
2022/06/21 06:41:19;;;;;;;5.80;4.27;;;18.60;99.90;;;;;;5075353;28;20933;-58
2022/06/21 06:43:51;;;;;;;7.17;4.20;;;18.60;99.90;;;;;;5075018;28;20571;-58
2022/06/21 06:46:25;;;;;;;6.00;4.00;;;18.60;99.90;;;;;;5076520;28;20802;-57
2022/06/21 06:48:55;;;;;;;6.73;4.90;;;18.80;99.90;;;;;;5075727;28;20469;-58
2022/06/21 06:51:50;;;;;;;4.60;4.07;;;18.90;99.90;;;;;;5076787;28;20457;-58
2022/06/21 06:54:28;;;;;;;7.90;4.27;;;19.10;99.90;;;;;;5075041;28;20491;-59
2022/06/21 06:57:04;;;;;;;6.17;4.10;;;19.30;99.90;;;;;;5075953;28;20472;-57
2022/06/21 06:59:31;;;;;;;6.47;4.30;;;19.40;99.90;;;;;;5075575;28;20453;-58
2022/06/21 07:02:04;;;;;;;6.83;4.13;;;19.70;99.90;;;;;;5086013;28;20466;-58
2022/06/21 07:04:38;;;;;;;5.23;4.40;;;20.00;99.90;;;;;;5076349;28;20465;-60
2022/06/21 07:07:17;;;;;;;5.03;4.30;;;20.30;99.90;;;;;;5094666;28;20462;-59
2022/06/21 07:09:51;;;;;;;6.30;3.50;;;20.60;99.90;;;;;;5097068;28;20451;-59
2022/06/21 07:12:21;;;;;;;3.07;2.70;;;20.80;99.90;;;;;;5096979;28;20464;-59
2022/06/21 07:14:50;;;;;;;6.67;4.00;;;21.10;99.90;;;;;;5093546;28;20512;-59
2022/06/21 07:17:27;;;;;;;4.57;3.53;;;21.20;99.90;;;;;;5097544;28;20531;-60
2022/06/21 07:19:57;;;;;;;4.00;3.60;;;21.20;99.90;;;;;;5096643;28;20512;-59
2022/06/21 07:22:27;;;;;;;5.93;3.40;;;21.30;99.90;;;;;;5096704;28;20442;-59
2022/06/21 07:25:05;;;;;;;5.10;3.63;;;21.50;99.90;;;;;;5096833;28;20459;-59
2022/06/21 07:27:35;;;;;;;4.90;4.17;;;21.70;99.90;;;;;;5096831;28;20891;-59
2022/06/21 07:30:06;;;;;;;6.53;4.00;;;21.90;99.90;;;;;;5097085;28;20471;-60
2022/06/21 07:32:44;;;;;;;6.00;3.60;;;22.10;99.90;;;;;;5097274;28;20464;-59
2022/06/21 07:35:18;;;;;;;3.67;3.27;;;22.30;99.90;;;;;;5095781;28;20498;-59
2022/06/21 07:37:54;;;;;;;3.60;3.30;;;22.40;99.90;;;;;;5096596;28;20456;-59
2022/06/21 07:40:29;;;;;;;3.87;3.47;;;22.60;99.90;;;;;;5097117;28;20460;-60
2022/06/21 07:43:02;;;;;;;6.63;3.90;;;22.70;99.90;;;;;;5076456;28;20500;-60
2022/06/21 07:45:35;;;;;;;4.57;3.13;;;22.70;99.90;;;;;;5076558;28;20464;-59
2022/06/21 07:48:09;;;;;;;3.93;3.53;;;22.90;99.90;;;;;;5077081;28;20477;-59
2022/06/21 07:50:44;;;;;;;3.30;3.00;;;22.90;99.90;;;;;;5077151;28;20890;-58
2022/06/21 07:53:16;;;;;;;4.37;3.70;;;22.90;99.90;;;;;;5078697;28;20467;-60
2022/06/21 07:55:50;;;;;;;4.40;3.90;;;23.10;99.90;;;;;;5094384;28;20491;-59
2022/06/21 07:58:22;;;;;;;6.97;3.67;;;23.40;99.90;;;;;;5080222;28;20460;-60
2022/06/21 08:06:54;;;;;;;5.40;3.67;;;23.80;99.90;;;;;;5079236;28;20825;-59
2022/06/21 08:09:28;;;;;;;4.87;3.60;;;23.70;99.90;;;;;;5082611;28;20518;-58
2022/06/21 08:12:01;;;;;;;7.77;3.37;;;23.40;99.90;;;;;;5081254;28;20465;-58
2022/06/21 08:14:31;;;;;;;4.20;3.30;;;23.40;99.90;;;;;;5080381;28;20456;-59
2022/06/21 08:17:03;;;;;;;4.90;3.87;;;23.20;99.90;;;;;;5092042;28;20439;-60
2022/06/21 08:19:42;;;;;;;4.10;3.50;;;23.80;99.90;;;;;;5098511;28;20502;-58
2022/06/21 08:22:16;;;;;;;3.83;3.47;;;24.20;99.90;;;;;;5096797;28;20537;-59
2022/06/21 08:24:52;;;;;;;3.57;3.10;;;23.90;99.90;;;;;;5080427;28;20465;-59
2022/06/21 08:27:26;;;;;;;6.90;3.97;;;23.80;99.90;;;;;;5083977;28;20927;-59
2022/06/21 08:29:56;;;;;;;3.43;2.80;;;23.40;99.90;;;;;;5079291;28;20469;-58
2022/06/21 08:32:32;;;;;;;4.10;3.10;;;23.00;99.90;;;;;;5089552;28;21133;-58
2022/06/21 08:35:04;;;;;;;3.33;3.03;;;23.50;99.90;;;;;;5100236;28;20491;-58
2022/06/21 08:37:39;;;;;;;4.07;3.40;;;23.80;99.90;;;;;;5098935;28;20460;-58
2022/06/21 08:40:27;;;;;;;3.40;3.10;;;23.90;99.90;;;;;;5099616;28;20529;-57
2022/06/21 08:43:31;;;;;;;3.60;3.13;;;24.50;99.90;;;;;;5100260;28;20496;-58
2022/06/21 08:46:22;;;;;;;4.50;3.10;;;25.00;99.90;;;;;;5007109;28;20565;-58
2022/06/21 08:49:07;;;;;;;5.13;3.13;;;25.20;99.90;;;;;;5100448;28;20737;-58
2022/06/21 08:52:04;;;;;;;4.00;2.97;;;25.80;99.90;;;;;;5100201;28;20885;-59
2022/06/21 08:54:44;;;;;;;4.93;3.60;;;25.80;99.90;;;;;;5099698;28;20467;-59
2022/06/21 08:57:22;;;;;;;3.80;3.33;;;25.20;99.90;;;;;;5100254;28;20480;-59
2022/06/21 09:00:05;;;;;;;4.93;3.40;;;25.40;99.90;;;;;;5100275;28;20497;-59
2022/06/21 09:02:42;;;;;;;4.00;2.97;;;25.60;99.90;;;;;;5100194;28;20468;-59
2022/06/21 09:05:29;;;;;;;3.00;2.80;;;25.20;99.90;;;;;;5094915;28;20462;-57
2022/06/21 09:08:16;;;;;;;3.50;3.20;;;25.60;99.90;;;;;;5084019;28;20506;-59
2022/06/21 09:10:57;;;;;;;4.40;3.87;;;25.80;99.90;;;;;;5079203;28;20464;-60
2022/06/21 09:13:49;;;;;;;5.30;3.50;;;26.10;99.90;;;;;;5082259;28;20464;-59
2022/06/21 09:16:24;;;;;;;4.80;3.77;;;25.30;99.90;;;;;;5082996;28;20484;-59
2022/06/21 09:19:08;;;;;;;4.03;3.40;;;24.50;99.90;;;;;;5084139;28;20456;-59
2022/06/21 09:21:46;;;;;;;3.13;2.70;;;24.40;99.90;;;;;;5076316;28;20454;-55
2022/06/21 09:24:29;;;;;;;5.80;4.00;;;25.30;99.90;;;;;;5088323;28;20811;-58
2022/06/21 09:27:05;;;;;;;7.47;3.30;;;25.30;99.90;;;;;;5087554;28;20457;-59
2022/06/21 09:29:41;;;;;;;4.00;3.60;;;24.50;99.90;;;;;;5077044;28;20456;-58
2022/06/21 09:32:21;;;;;;;5.33;3.40;;;24.50;99.90;;;;;;5086378;28;21056;-58
2022/06/21 09:35:03;;;;;;;3.40;3.10;;;23.90;99.90;;;;;;5082164;28;20532;-58
2022/06/21 09:37:41;;;;;;;4.40;3.90;;;23.30;99.90;;;;;;5090712;28;20453;-59
2022/06/21 09:40:17;;;;;;;3.53;3.33;;;23.80;99.90;;;;;;5087971;28;20463;-59
2022/06/21 09:42:52;;;;;;;4.33;3.10;;;23.60;99.90;;;;;;5086500;28;20446;-59
2022/06/21 09:45:25;;;;;;;3.70;3.40;;;24.50;99.90;;;;;;5105678;28;20737;-58
2022/06/21 09:48:05;;;;;;;4.13;3.80;;;25.30;99.90;;;;;;5103125;28;20505;-59
2022/06/21 09:50:44;;;;;;;4.33;4.00;;;25.30;99.90;;;;;;5103653;28;21856;-59
2022/06/21 09:53:21;;;;;;;3.20;2.90;;;26.40;99.90;;;;;;5104902;28;20547;-59
2022/06/21 09:56:00;;;;;;;4.00;3.70;;;26.90;99.90;;;;;;5104707;28;20948;-60
2022/06/21 09:58:38;;;;;;;4.13;3.70;;;27.40;99.90;;;;;;5106030;28;20967;-59
2022/06/21 10:01:13;;;;;;;3.80;3.40;;;28.10;99.90;;;;;;5108676;28;20477;-58
2022/06/21 10:03:46;;;;;;;6.17;4.00;;;26.70;99.90;;;;;;5117776;28;20459;-59
2022/06/21 10:06:27;;;;;;;4.30;3.90;;;26.20;99.90;;;;;;5119035;28;20459;-59
2022/06/21 10:09:21;;;;;;;4.73;3.77;;;25.80;99.90;;;;;;5117064;28;20456;-59
2022/06/21 10:11:58;;;;;;;6.20;3.50;;;25.70;99.90;;;;;;5111326;28;20463;-58
2022/06/21 10:17:35;;;;;;;3.23;2.93;;;25.80;99.90;;;;;;5091440;27;20572;-58
2022/06/21 10:20:20;;;;;;;3.80;3.00;;;26.30;99.90;;;;;;5078810;28;20514;-58
2022/06/21 10:22:58;;;;;;;5.97;3.60;;;26.70;99.90;;;;;;5073965;28;20461;-58
2022/06/21 10:25:54;;;;;;;4.97;4.07;;;26.50;99.90;;;;;;5082861;28;20453;-58
2022/06/21 10:28:43;;;;;;;7.83;4.20;;;27.50;99.90;;;;;;5075406;28;20918;-59
2022/06/21 10:31:31;;;;;;;4.60;4.20;;;27.60;99.90;;;;;;5070681;28;20476;-60
2022/06/21 10:34:31;;;;;;;4.17;3.73;;;25.90;99.90;;;;;;5054600;28;20484;-57
2022/06/21 10:37:24;;;;;;;4.93;2.80;;;25.20;99.90;;;;;;5048775;28;20498;-59
2022/06/21 10:40:17;;;;;;;3.93;3.30;;;25.50;99.90;;;;;;5054260;28;20458;-58
2022/06/21 10:43:24;;;;;;;4.00;3.43;;;25.60;99.90;;;;;;5078752;28;20870;-59
2022/06/21 10:45:55;;;;;;;6.87;3.70;;;26.90;99.90;;;;;;5067415;28;20777;-57
2022/06/21 10:49:11;;;;;;;3.83;3.03;;;27.60;99.90;;;;;;5072345;28;20756;-56
2022/06/21 10:51:54;;;;;;;4.50;3.47;;;28.00;99.90;;;;;;5048894;28;20477;-59
2022/06/21 10:54:35;;;;;;;5.90;3.23;;;28.00;99.90;;;;;;5053724;28;20948;-58
2022/06/21 10:57:13;;;;;;;4.50;3.50;;;28.40;99.90;;;;;;5052260;28;20494;-58
2022/06/21 11:03:05;;;;;;;4.60;3.80;;;28.50;99.90;;;;;;5069926;28;20424;-56
2022/06/21 11:05:46;;;;;;;4.10;3.67;;;27.40;99.90;;;;;;5073745;28;20457;-57
2022/06/21 11:08:27;;;;;;;3.73;3.43;;;27.50;99.90;;;;;;5072931;28;20546;-58
2022/06/21 11:11:03;;;;;;;6.93;4.17;;;27.00;99.90;;;;;;5073306;28;20457;-59
2022/06/21 11:13:35;;;;;;;8.33;4.60;;;27.00;99.90;;;;;;5073440;28;20775;-59
2022/06/21 11:16:12;;;;;;;7.40;4.03;;;26.90;99.90;;;;;;5073085;28;20504;-58
2022/06/21 11:18:52;;;;;;;4.40;4.00;;;26.80;99.90;;;;;;5080237;28;20459;-58
2022/06/21 11:21:41;;;;;;;5.23;3.80;;;26.30;99.90;;;;;;5076923;28;20874;-58
2022/06/21 11:24:20;;;;;;;5.07;3.60;;;25.10;99.90;;;;;;5079291;28;20465;-58
2022/06/21 11:27:00;;;;;;;6.10;4.10;;;26.10;99.90;;;;;;5077833;28;20453;-58
2022/06/21 11:29:38;;;;;;;6.50;3.80;;;25.90;99.90;;;;;;5065348;28;20453;-58
2022/06/21 11:32:18;;;;;;;4.73;3.83;;;25.10;99.90;;;;;;5065107;28;20461;-58
2022/06/21 11:35:00;;;;;;;7.17;4.37;;;25.70;99.90;;;;;;5061240;28;20457;-58
2022/06/21 11:38:06;;;;;;;4.70;3.83;;;25.90;99.90;;;;;;5060130;28;20490;-58
2022/06/21 11:40:49;;;;;;;5.30;4.60;;;26.10;99.90;;;;;;5058600;28;20515;-59
2022/06/21 11:43:41;;;;;;;4.50;4.10;;;26.20;99.90;;;;;;5058900;28;20487;-59
2022/06/21 11:46:17;;;;;;;6.50;4.00;;;24.50;99.90;;;;;;5069622;28;20552;-59
2022/06/21 11:49:39;;;;;;;5.23;4.40;;;24.80;99.90;;;;;;5067834;28;20462;-59
2022/06/21 11:52:40;;;;;;;4.57;3.80;;;24.30;99.90;;;;;;5055438;28;20464;-57
2022/06/21 11:55:27;;;;;;;6.30;3.90;;;24.30;99.90;;;;;;5063146;28;20467;-58
2022/06/21 11:58:07;;;;;;;5.10;4.50;;;24.70;99.90;;;;;;5063443;28;20486;-58
2022/06/21 12:00:44;;;;;;;5.13;3.70;;;24.70;99.90;;;;;;5052012;28;20474;-58
2022/06/21 12:03:20;;;;;;;3.83;3.43;;;24.60;99.90;;;;;;5054986;28;20469;-57
2022/06/21 12:05:54;;;;;;;4.97;3.80;;;24.90;99.90;;;;;;5073792;28;20933;-57
2022/06/21 12:08:28;;;;;;;6.33;4.50;;;24.90;99.90;;;;;;5057100;28;20474;-58
2022/06/21 12:11:22;;;;;;;4.87;4.33;;;25.20;99.90;;;;;;5058624;28;20462;-59
2022/06/21 12:14:06;;;;;;;5.40;4.13;;;25.40;99.90;;;;;;5059095;28;20462;-58
2022/06/21 12:16:44;;;;;;;5.30;3.47;;;24.10;99.90;;;;;;5055151;28;20490;-59
2022/06/21 12:19:20;;;;;;;4.43;3.83;;;24.30;99.90;;;;;;5057223;28;20492;-59
2022/06/21 12:21:53;;;;;;;6.37;3.50;;;25.30;99.90;;;;;;5054917;28;20473;-58
2022/06/21 12:24:23;;;;;;;5.50;3.53;;;25.80;99.90;;;;;;5053983;28;20458;-59
2022/06/21 12:26:53;;;;;;;9.33;3.57;;;26.50;99.90;;;;;;5060112;28;20450;-60
2022/06/21 12:29:26;;;;;;;4.67;3.63;;;25.20;99.90;;;;;;5059601;28;20910;-58
2022/06/21 12:31:57;;;;;;;4.70;3.57;;;24.90;99.90;;;;;;5058883;28;20486;-58
2022/06/21 12:34:31;;;;;;;4.93;3.77;;;26.00;99.90;;;;;;5060853;28;20458;-58
2022/06/21 12:37:02;;;;;;;5.23;4.17;;;26.50;99.90;;;;;;5059671;28;20985;-60
2022/06/21 12:39:34;;;;;;;4.40;3.73;;;24.70;99.90;;;;;;5061456;28;20480;-60
2022/06/21 12:42:26;;;;;;;4.13;3.73;;;25.00;99.90;;;;;;5063883;28;20468;-59
2022/06/21 12:45:25;;;;;;;4.40;4.00;;;25.10;99.90;;;;;;5062727;28;20458;-61
2022/06/21 12:48:11;;;;;;;4.37;3.77;;;25.50;99.90;;;;;;5065348;28;20455;-59
2022/06/21 12:50:52;;;;;;;6.00;3.70;;;25.30;99.90;;;;;;5063315;28;20471;-60
2022/06/21 12:53:49;;;;;;;4.80;3.27;;;25.20;99.90;;;;;;5064752;28;20470;-60
2022/06/21 12:56:36;;;;;;;7.00;2.93;;;26.50;99.90;;;;;;5068541;28;20815;-61
2022/06/21 13:02:41;;;;;;;6.50;4.20;;;28.10;99.90;;;;;;5068168;28;20444;-62
2022/06/21 13:05:30;;;;;;;7.37;3.63;;;28.00;99.90;;;;;;5063743;28;20564;-61
2022/06/21 13:08:35;;;;;;;4.27;3.50;;;27.50;99.90;;;;;;5061753;28;20519;-58
2022/06/21 13:11:16;;;;;;;5.90;4.40;;;26.20;99.90;;;;;;5067082;28;20458;-59
2022/06/21 13:14:15;;;;;;;6.53;3.57;;;26.00;99.90;;;;;;5068004;28;20464;-60
2022/06/21 13:16:50;;;;;;;3.77;3.47;;;26.10;99.90;;;;;;5062507;28;20461;-61
2022/06/21 13:19:33;;;;;;;5.63;3.80;;;26.10;99.90;;;;;;5063670;28;20500;-60
2022/06/21 13:22:17;;;;;;;4.53;4.00;;;26.10;99.90;;;;;;5067029;28;20454;-62
2022/06/21 13:25:04;;;;;;;6.43;3.40;;;26.10;99.90;;;;;;5067395;28;20461;-62
2022/06/21 13:27:47;;;;;;;6.43;3.53;;;25.80;99.90;;;;;;5067896;28;20522;-61
2022/06/21 13:30:50;;;;;;;10.70;4.20;;;25.80;99.90;;;;;;5065065;28;20520;-61
2022/06/21 13:33:23;;;;;;;3.70;3.30;;;26.70;99.90;;;;;;5066588;28;20434;-61
2022/06/21 13:36:02;;;;;;;3.93;3.43;;;27.20;99.90;;;;;;5061404;28;20440;-61
2022/06/21 13:38:42;;;;;;;4.80;4.30;;;27.00;99.90;;;;;;5065952;28;20544;-61
2022/06/21 13:44:16;;;;;;;4.17;3.50;;;25.50;99.90;;;;;;5067048;28;20507;-58
2022/06/21 13:46:49;;;;;;;3.67;3.17;;;25.10;99.90;;;;;;5067606;28;20872;-59
2022/06/21 13:49:28;;;;;;;5.07;3.53;;;25.50;99.90;;;;;;5064894;28;20466;-60
2022/06/21 13:52:10;;;;;;;4.17;3.73;;;25.50;99.90;;;;;;5064514;28;20895;-60
2022/06/21 13:54:47;;;;;;;4.80;3.93;;;25.20;99.90;;;;;;5065016;28;20915;-60
2022/06/21 13:57:21;;;;;;;4.30;3.20;;;25.40;99.90;;;;;;5062589;28;20572;-62